Time;durP1;ratioP1;P1;durP2;ratioP2;P2;SDS_P1;SDS_P2;PMS_P1;PMS_P2;Temp;Humidity;BMP_temperature;BMP_pressure;BME280_temperature;BME280_humidity;BME280_pressure;Samples;Min_cycle;Max_cycle;Signal;HPM_P1;HPM_P2
2022/03/17 00:02:10;;;;;;;40.97;22.67;;;7.40;99.90;;;;;;5076382;28;20427;-47
2022/03/17 00:04:37;;;;;;;35.97;16.63;;;7.40;99.90;;;;;;5076677;28;20427;-48
2022/03/17 00:07:05;;;;;;;38.20;17.17;;;7.50;99.90;;;;;;5105973;22;20627;-47
2022/03/17 00:09:35;;;;;;;39.10;16.57;;;7.40;99.90;;;;;;5077654;28;20467;-45
2022/03/17 00:12:05;;;;;;;34.43;18.40;;;7.40;99.90;;;;;;5077743;28;20438;-46
2022/03/17 00:14:31;;;;;;;35.27;18.83;;;7.40;99.90;;;;;;5077205;28;20444;-45
2022/03/17 00:16:58;;;;;;;38.00;18.57;;;7.40;99.90;;;;;;5077482;28;20463;-44
2022/03/17 00:19:27;;;;;;;43.03;18.80;;;7.40;99.90;;;;;;5077150;28;20438;-41
2022/03/17 00:21:53;;;;;;;36.73;17.90;;;7.40;99.90;;;;;;5077195;28;20498;-42
2022/03/17 00:24:21;;;;;;;35.57;19.10;;;7.30;99.90;;;;;;5077466;28;20672;-45
2022/03/17 00:26:49;;;;;;;36.83;19.97;;;7.30;99.90;;;;;;5077191;28;20493;-42
2022/03/17 00:29:16;;;;;;;44.07;20.33;;;7.40;99.90;;;;;;5076659;28;20443;-44
2022/03/17 00:31:43;;;;;;;34.57;18.83;;;7.40;99.90;;;;;;5076659;28;20423;-43
2022/03/17 00:34:10;;;;;;;46.63;21.67;;;7.40;99.90;;;;;;5076793;28;20451;-47
2022/03/17 00:36:37;;;;;;;44.83;21.90;;;7.30;99.90;;;;;;5076691;28;20427;-45
2022/03/17 00:39:05;;;;;;;38.87;22.93;;;7.30;99.90;;;;;;5076867;28;20455;-48
2022/03/17 00:41:33;;;;;;;39.03;19.53;;;7.30;99.90;;;;;;5076740;28;20485;-45
2022/03/17 00:44:00;;;;;;;44.30;21.70;;;7.30;99.90;;;;;;5077063;28;20481;-49
2022/03/17 00:46:27;;;;;;;31.90;18.63;;;7.30;99.90;;;;;;5076622;28;20503;-44
2022/03/17 00:48:53;;;;;;;37.13;20.40;;;7.30;99.90;;;;;;5076239;28;20477;-42
2022/03/17 00:51:23;;;;;;;36.20;17.70;;;7.30;99.90;;;;;;5076145;28;20463;-45
2022/03/17 00:53:52;;;;;;;39.23;19.40;;;7.30;99.90;;;;;;5076334;28;20469;-44
2022/03/17 00:56:19;;;;;;;41.13;20.73;;;7.20;99.90;;;;;;5076065;28;20475;-42
2022/03/17 00:58:48;;;;;;;34.67;19.20;;;7.20;99.90;;;;;;5076320;28;20808;-42
2022/03/17 01:01:16;;;;;;;45.10;21.57;;;7.20;99.90;;;;;;5076709;28;20477;-43
2022/03/17 01:03:44;;;;;;;43.03;21.67;;;7.20;99.90;;;;;;5076398;28;20521;-43
2022/03/17 01:06:12;;;;;;;32.93;18.50;;;7.20;99.90;;;;;;5076412;28;20467;-42
2022/03/17 01:08:39;;;;;;;42.30;24.30;;;7.20;99.90;;;;;;5076543;28;20439;-42
2022/03/17 01:11:07;;;;;;;34.97;18.10;;;7.20;99.90;;;;;;5075812;28;20447;-43
2022/03/17 01:13:34;;;;;;;41.50;20.40;;;7.20;99.90;;;;;;5076181;28;20467;-42
2022/03/17 01:16:02;;;;;;;41.13;21.27;;;7.10;99.90;;;;;;5075793;28;20443;-45
2022/03/17 01:18:28;;;;;;;41.67;20.20;;;7.10;99.90;;;;;;5076387;28;20474;-47
2022/03/17 01:20:57;;;;;;;35.87;19.80;;;7.10;99.90;;;;;;5076151;28;20443;-43
2022/03/17 01:23:24;;;;;;;41.33;21.07;;;7.20;99.90;;;;;;5075629;28;20538;-49
2022/03/17 01:25:51;;;;;;;41.23;20.57;;;7.10;99.90;;;;;;5076214;28;20427;-45
2022/03/17 01:28:17;;;;;;;37.00;19.43;;;7.20;99.90;;;;;;5075756;28;20458;-47
2022/03/17 01:30:44;;;;;;;40.57;19.47;;;7.10;99.90;;;;;;5076146;28;20474;-47
2022/03/17 01:33:12;;;;;;;35.70;19.67;;;7.10;99.90;;;;;;5076308;28;20436;-40
2022/03/17 01:35:39;;;;;;;40.90;20.67;;;7.10;99.90;;;;;;5076053;28;20455;-44
2022/03/17 01:38:05;;;;;;;46.73;20.90;;;7.20;99.90;;;;;;5075751;28;20973;-48
2022/03/17 01:40:32;;;;;;;43.07;18.90;;;7.10;99.90;;;;;;5075721;28;20467;-46
2022/03/17 01:42:59;;;;;;;33.47;18.40;;;7.10;99.90;;;;;;5075579;28;20487;-52
2022/03/17 01:45:28;;;;;;;43.87;23.17;;;7.00;99.90;;;;;;5075767;28;20439;-45
2022/03/17 01:47:55;;;;;;;38.33;22.93;;;7.00;99.90;;;;;;5075356;28;20485;-47
2022/03/17 01:50:23;;;;;;;38.13;19.17;;;7.00;99.90;;;;;;5076025;28;20442;-51
2022/03/17 01:52:50;;;;;;;40.30;19.70;;;7.00;99.90;;;;;;5057728;28;20463;-49
2022/03/17 01:55:18;;;;;;;45.27;19.73;;;7.00;99.90;;;;;;5056170;28;20447;-45
2022/03/17 01:57:45;;;;;;;44.97;20.30;;;7.00;99.90;;;;;;5055310;28;20471;-44
2022/03/17 02:00:17;;;;;;;36.07;19.77;;;7.00;99.90;;;;;;5059112;28;20455;-45
2022/03/17 02:02:44;;;;;;;48.53;21.23;;;7.00;99.90;;;;;;5059981;28;20463;-47
2022/03/17 02:05:12;;;;;;;41.83;20.20;;;7.00;99.90;;;;;;5059784;28;20872;-50
2022/03/17 02:07:41;;;;;;;36.90;21.67;;;7.00;99.90;;;;;;5059367;28;20471;-48
2022/03/17 02:10:08;;;;;;;42.30;22.13;;;7.00;99.90;;;;;;5059690;28;20483;-48
2022/03/17 02:15:20;;;;;;;42.37;21.37;;;6.90;99.90;;;;;;5059545;28;20946;-48
2022/03/17 02:17:48;;;;;;;44.60;21.17;;;6.90;99.90;;;;;;5059405;28;20455;-51
2022/03/17 02:20:15;;;;;;;49.23;23.33;;;6.90;99.90;;;;;;5059139;28;20481;-46
2022/03/17 02:22:45;;;;;;;41.87;22.40;;;6.80;99.90;;;;;;5059504;28;20443;-47
2022/03/17 02:27:59;;;;;;;41.83;20.93;;;6.80;99.90;;;;;;5059601;28;20426;-45
2022/03/17 02:30:26;;;;;;;39.50;22.43;;;6.80;99.90;;;;;;5059182;28;20451;-48
2022/03/17 02:32:59;;;;;;;41.43;23.23;;;6.80;99.90;;;;;;5059470;28;20451;-46
2022/03/17 02:35:27;;;;;;;44.20;21.53;;;6.80;99.90;;;;;;5059499;28;20427;-43
2022/03/17 02:37:54;;;;;;;45.30;21.37;;;6.70;99.90;;;;;;5059318;28;20943;-44
2022/03/17 02:40:23;;;;;;;43.10;21.00;;;6.70;99.90;;;;;;5059623;28;20458;-48
2022/03/17 02:42:50;;;;;;;41.47;20.77;;;6.70;99.90;;;;;;5058718;28;20463;-45
2022/03/17 02:45:18;;;;;;;52.10;25.10;;;6.70;99.90;;;;;;5059150;28;20518;-45
2022/03/17 02:47:45;;;;;;;51.50;24.30;;;6.60;99.90;;;;;;5058928;28;20443;-46
2022/03/17 02:50:12;;;;;;;40.07;21.20;;;6.60;99.90;;;;;;5058712;28;20478;-47
2022/03/17 02:52:39;;;;;;;49.63;25.60;;;6.60;99.90;;;;;;5059212;28;20459;-45
2022/03/17 02:55:08;;;;;;;45.03;23.80;;;6.60;99.90;;;;;;5059793;28;20435;-43
2022/03/17 02:57:36;;;;;;;40.33;21.77;;;6.60;99.90;;;;;;5059635;28;20498;-45
2022/03/17 03:00:04;;;;;;;38.20;19.50;;;6.60;99.90;;;;;;5058620;28;20927;-45
2022/03/17 03:02:31;;;;;;;44.00;22.90;;;6.60;99.90;;;;;;5058908;28;20454;-46
2022/03/17 03:04:58;;;;;;;42.70;22.40;;;6.60;99.90;;;;;;5058721;28;20487;-44
2022/03/17 03:07:24;;;;;;;51.33;23.87;;;6.60;99.90;;;;;;5058518;28;20455;-46
2022/03/17 03:09:52;;;;;;;39.13;23.37;;;6.60;99.90;;;;;;5057990;28;20509;-49
2022/03/17 03:12:19;;;;;;;44.83;22.73;;;6.50;99.90;;;;;;5058590;28;20509;-47
2022/03/17 03:14:47;;;;;;;50.33;24.20;;;6.50;99.90;;;;;;5059144;28;20782;-46
2022/03/17 03:17:13;;;;;;;42.63;19.10;;;6.50;99.90;;;;;;5058855;28;20471;-48
2022/03/17 03:19:40;;;;;;;47.70;21.70;;;6.50;99.90;;;;;;5059168;28;20447;-47
2022/03/17 03:22:07;;;;;;;54.90;24.90;;;6.60;99.90;;;;;;5058135;28;20990;-46
2022/03/17 03:24:34;;;;;;;40.00;20.30;;;6.60;99.90;;;;;;5058576;28;20475;-46
2022/03/17 03:27:00;;;;;;;43.73;23.03;;;6.60;99.90;;;;;;5058536;28;20603;-47
2022/03/17 03:29:27;;;;;;;39.37;22.67;;;6.60;99.90;;;;;;5058625;28;20427;-47
2022/03/17 03:31:57;;;;;;;35.97;22.30;;;6.60;99.90;;;;;;5058189;28;20468;-50
2022/03/17 03:34:24;;;;;;;46.83;22.67;;;6.50;99.90;;;;;;5058352;28;20513;-47
2022/03/17 03:39:36;;;;;;;44.20;24.30;;;6.50;99.90;;;;;;5058252;28;20454;-44
2022/03/17 03:42:04;;;;;;;41.80;23.37;;;6.60;99.90;;;;;;5058333;28;20455;-44
2022/03/17 03:44:30;;;;;;;47.80;23.90;;;6.50;99.90;;;;;;5058276;28;20793;-47
2022/03/17 03:46:59;;;;;;;44.80;25.47;;;6.60;99.90;;;;;;5058057;28;20485;-47
2022/03/17 03:49:25;;;;;;;46.93;23.83;;;6.60;99.90;;;;;;5057857;28;20459;-47
2022/03/17 03:51:52;;;;;;;42.90;23.70;;;6.60;99.90;;;;;;5057670;28;20466;-47
2022/03/17 03:54:19;;;;;;;55.80;26.93;;;6.60;99.90;;;;;;5058020;28;20447;-48
2022/03/17 03:56:47;;;;;;;57.83;27.50;;;6.60;99.90;;;;;;5057799;28;20985;-46
2022/03/17 03:59:17;;;;;;;46.43;24.27;;;6.70;99.90;;;;;;5057810;28;20463;-49
2022/03/17 04:01:44;;;;;;;49.63;27.47;;;6.70;99.90;;;;;;5057829;28;20471;-48
2022/03/17 04:04:15;;;;;;;49.97;22.87;;;6.80;99.90;;;;;;5057685;28;20478;-46
2022/03/17 04:06:45;;;;;;;41.40;21.53;;;6.80;99.90;;;;;;5057562;28;20516;-48
2022/03/17 04:09:12;;;;;;;48.20;25.77;;;6.80;99.90;;;;;;5057583;28;20493;-46
2022/03/17 04:11:39;;;;;;;42.37;24.00;;;6.80;99.90;;;;;;5057452;28;20454;-49
2022/03/17 04:14:06;;;;;;;41.37;22.63;;;6.80;99.90;;;;;;5057398;28;20827;-44
2022/03/17 04:16:33;;;;;;;45.60;23.37;;;6.80;99.90;;;;;;5057121;28;20487;-47
2022/03/17 04:18:59;;;;;;;51.10;26.70;;;6.90;99.90;;;;;;5057418;28;20472;-49
2022/03/17 04:21:28;;;;;;;58.40;27.60;;;6.90;99.90;;;;;;5056805;28;20455;-48
2022/03/17 04:23:55;;;;;;;53.33;26.23;;;6.90;99.90;;;;;;5056602;28;20498;-49
2022/03/17 04:26:21;;;;;;;51.83;24.47;;;6.90;99.90;;;;;;5056962;28;20946;-47
2022/03/17 04:28:48;;;;;;;43.50;25.63;;;6.80;99.90;;;;;;5057001;28;20445;-50
2022/03/17 04:31:15;;;;;;;51.10;26.37;;;6.80;99.90;;;;;;5056793;28;20431;-46
2022/03/17 04:33:42;;;;;;;45.83;25.50;;;6.80;99.90;;;;;;5056739;28;20519;-47
2022/03/17 04:36:10;;;;;;;47.83;26.00;;;6.80;99.90;;;;;;5056505;28;20471;-45
2022/03/17 04:38:38;;;;;;;56.60;26.87;;;6.80;99.90;;;;;;5056996;28;20522;-46
2022/03/17 04:41:05;;;;;;;48.60;23.93;;;6.80;99.90;;;;;;5056905;28;20498;-47
2022/03/17 04:43:32;;;;;;;42.03;25.50;;;6.80;99.90;;;;;;5057260;28;20455;-48
2022/03/17 04:46:00;;;;;;;58.70;28.20;;;6.80;99.90;;;;;;5056585;28;20471;-49
2022/03/17 04:48:27;;;;;;;52.23;25.53;;;6.80;99.90;;;;;;5056990;28;20431;-45
2022/03/17 04:50:53;;;;;;;50.00;26.23;;;6.80;99.90;;;;;;5056899;28;20493;-49
2022/03/17 04:53:29;;;;;;;51.80;26.80;;;6.80;99.90;;;;;;5056586;28;21109;-47
2022/03/17 04:55:59;;;;;;;48.10;26.43;;;6.80;99.90;;;;;;5056614;28;20458;-46
2022/03/17 04:58:26;;;;;;;48.33;24.90;;;6.80;99.90;;;;;;5056840;28;20532;-48
2022/03/17 05:00:53;;;;;;;48.03;25.10;;;6.80;99.90;;;;;;5057232;28;20473;-45
2022/03/17 05:03:20;;;;;;;49.50;26.13;;;6.80;99.90;;;;;;5056346;28;20478;-45
2022/03/17 05:05:47;;;;;;;50.93;27.13;;;6.80;99.90;;;;;;5056523;28;20487;-47
2022/03/17 05:08:14;;;;;;;54.33;27.23;;;6.80;99.90;;;;;;5056196;28;20431;-45
2022/03/17 05:10:41;;;;;;;56.67;28.30;;;6.80;99.90;;;;;;5056977;28;20435;-44
2022/03/17 05:13:11;;;;;;;53.90;28.50;;;6.80;99.90;;;;;;5056734;28;20923;-46
2022/03/17 05:15:38;;;;;;;50.93;29.17;;;6.80;99.90;;;;;;5056089;28;20498;-46
2022/03/17 05:18:06;;;;;;;55.67;28.43;;;6.90;99.90;;;;;;5056093;28;20450;-46
2022/03/17 05:20:35;;;;;;;57.10;28.83;;;6.90;99.90;;;;;;5056161;28;20506;-45
2022/03/17 05:23:04;;;;;;;65.53;27.83;;;7.00;99.90;;;;;;5055946;28;20517;-48
2022/03/17 05:25:31;;;;;;;54.20;26.50;;;7.00;99.90;;;;;;5055930;28;20499;-46
2022/03/17 05:27:58;;;;;;;59.73;29.93;;;7.00;99.90;;;;;;5056069;28;20435;-47
2022/03/17 05:30:27;;;;;;;49.40;28.40;;;7.00;99.90;;;;;;5056057;28;20439;-46
2022/03/17 05:32:55;;;;;;;54.17;26.13;;;7.00;99.90;;;;;;5055059;28;20451;-44
2022/03/17 05:35:22;;;;;;;57.30;27.63;;;7.00;99.90;;;;;;5055429;28;20930;-47
2022/03/17 05:37:50;;;;;;;49.67;27.43;;;7.00;99.90;;;;;;5055857;28;20471;-46
2022/03/17 05:40:18;;;;;;;58.23;30.70;;;7.00;99.90;;;;;;5055909;28;20936;-45
2022/03/17 05:42:46;;;;;;;58.80;28.70;;;7.00;99.90;;;;;;5055137;28;20978;-47
2022/03/17 05:45:14;;;;;;;49.53;29.77;;;7.00;99.90;;;;;;5055694;28;20483;-44
2022/03/17 05:47:44;;;;;;;59.20;31.47;;;7.00;99.90;;;;;;5055864;28;20599;-45
2022/03/17 05:50:13;;;;;;;54.87;29.60;;;7.00;99.90;;;;;;5055611;28;20481;-48
2022/03/17 05:52:40;;;;;;;61.27;28.83;;;7.00;99.90;;;;;;5055660;28;20447;-46
2022/03/17 05:55:08;;;;;;;56.17;28.20;;;7.00;99.90;;;;;;5055491;28;20504;-48
2022/03/17 05:57:35;;;;;;;54.10;31.43;;;7.00;99.90;;;;;;5055812;28;20936;-45
2022/03/17 06:00:01;;;;;;;56.00;31.70;;;7.00;99.90;;;;;;5055381;28;20471;-42
2022/03/17 06:02:28;;;;;;;56.20;30.27;;;7.10;99.90;;;;;;5055951;28;20443;-45
2022/03/17 06:04:56;;;;;;;58.70;31.73;;;7.10;99.90;;;;;;5055542;28;20491;-52
2022/03/17 06:07:23;;;;;;;58.47;31.83;;;7.10;99.90;;;;;;5055806;28;20542;-46
2022/03/17 06:09:49;;;;;;;52.07;26.23;;;7.20;99.90;;;;;;5055915;28;20451;-46
2022/03/17 06:12:16;;;;;;;63.63;35.50;;;7.10;99.90;;;;;;5056464;28;20526;-48
2022/03/17 06:14:46;;;;;;;58.83;30.00;;;7.20;99.90;;;;;;5055998;28;21065;-45
2022/03/17 06:17:12;;;;;;;59.80;30.47;;;7.10;99.90;;;;;;5055705;28;20467;-48
2022/03/17 06:19:40;;;;;;;55.83;31.90;;;7.10;99.90;;;;;;5055693;28;20446;-50
2022/03/17 06:22:08;;;;;;;60.37;31.63;;;7.00;99.90;;;;;;5054986;28;20582;-46
2022/03/17 06:24:35;;;;;;;54.83;26.80;;;7.10;99.90;;;;;;5055118;28;20899;-45
2022/03/17 06:27:01;;;;;;;54.30;29.53;;;7.10;99.90;;;;;;5055537;28;20536;-46
2022/03/17 06:29:28;;;;;;;56.77;31.80;;;7.10;99.90;;;;;;5054953;28;20478;-46
2022/03/17 06:31:55;;;;;;;70.83;30.90;;;7.20;99.90;;;;;;5055349;28;20811;-46
2022/03/17 06:34:22;;;;;;;58.67;31.03;;;7.20;99.90;;;;;;5054949;28;20459;-45
2022/03/17 06:36:48;;;;;;;64.50;31.70;;;7.30;99.90;;;;;;5055374;28;20443;-48
2022/03/17 06:39:16;;;;;;;52.93;30.00;;;7.30;99.90;;;;;;5054504;28;21009;-46
2022/03/17 06:41:43;;;;;;;66.37;35.10;;;7.40;99.90;;;;;;5054631;28;20520;-45
2022/03/17 06:44:10;;;;;;;57.77;32.40;;;7.40;99.90;;;;;;5054718;28;20912;-46
2022/03/17 06:46:36;;;;;;;66.67;34.97;;;7.40;99.90;;;;;;5058981;28;20500;-45
2022/03/17 06:49:03;;;;;;;77.07;33.13;;;7.40;99.90;;;;;;5058736;28;20475;-46
2022/03/17 06:51:29;;;;;;;59.33;32.20;;;7.50;99.90;;;;;;5058862;28;20467;-45
2022/03/17 06:53:56;;;;;;;61.30;31.63;;;7.50;99.90;;;;;;5058669;28;20505;-47
2022/03/17 06:56:24;;;;;;;61.10;31.00;;;7.50;99.90;;;;;;5058575;28;20435;-45
2022/03/17 06:58:51;;;;;;;62.50;33.80;;;7.60;99.90;;;;;;5060942;28;20471;-48
2022/03/17 07:01:18;;;;;;;65.77;35.10;;;7.60;99.90;;;;;;5059394;28;20508;-63
2022/03/17 07:03:44;;;;;;;67.80;34.80;;;7.60;99.90;;;;;;5060421;28;20515;-57
2022/03/17 07:06:11;;;;;;;67.40;34.07;;;7.60;99.90;;;;;;5063362;28;20491;-61
2022/03/17 07:08:38;;;;;;;52.10;31.10;;;7.60;99.90;;;;;;5071482;28;20488;-60
2022/03/17 07:11:04;;;;;;;64.20;32.40;;;7.70;99.90;;;;;;5070671;28;20461;-61
2022/03/17 07:13:33;;;;;;;71.47;36.20;;;7.60;99.90;;;;;;5075214;28;20950;-60
2022/03/17 07:16:02;;;;;;;63.53;33.63;;;7.60;99.90;;;;;;5061254;28;20530;-57
2022/03/17 07:18:29;;;;;;;68.63;34.70;;;7.70;99.90;;;;;;5072157;28;20943;-60
2022/03/17 07:20:57;;;;;;;64.97;32.63;;;7.70;99.90;;;;;;5069355;28;20522;-59
2022/03/17 07:23:24;;;;;;;66.70;34.33;;;7.80;99.90;;;;;;5065101;28;20544;-57
2022/03/17 07:25:53;;;;;;;69.37;37.50;;;7.80;99.90;;;;;;5055749;28;20475;-64
2022/03/17 07:28:20;;;;;;;59.93;32.93;;;7.80;99.90;;;;;;5063780;28;20481;-52
2022/03/17 07:30:49;;;;;;;68.23;36.33;;;7.90;99.90;;;;;;5074363;28;20435;-51
2022/03/17 07:33:15;;;;;;;75.40;39.57;;;8.00;99.90;;;;;;5070719;28;20496;-56
2022/03/17 07:35:42;;;;;;;56.57;31.57;;;8.00;99.90;;;;;;5061520;28;20489;-50
2022/03/17 07:38:09;;;;;;;69.07;33.47;;;8.00;99.90;;;;;;5076609;28;20446;-51
2022/03/17 07:40:36;;;;;;;63.07;33.00;;;8.10;99.90;;;;;;5077511;28;20802;-52
2022/03/17 07:43:03;;;;;;;59.80;34.33;;;8.10;99.90;;;;;;5076752;28;20473;-51
2022/03/17 07:45:29;;;;;;;67.50;33.23;;;8.10;99.90;;;;;;5069632;28;20483;-53
2022/03/17 07:47:57;;;;;;;71.50;34.30;;;8.10;99.90;;;;;;5037010;28;20460;-54
2022/03/17 07:50:24;;;;;;;63.87;34.10;;;8.20;99.90;;;;;;5037600;28;20459;-53
2022/03/17 07:52:51;;;;;;;68.10;34.60;;;8.20;99.90;;;;;;5037313;28;20530;-52
2022/03/17 07:55:18;;;;;;;62.10;34.50;;;8.30;99.90;;;;;;5037008;28;20493;-59
2022/03/17 07:57:48;;;;;;;64.73;33.03;;;8.30;99.90;;;;;;5035944;28;20567;-50
2022/03/17 08:00:15;;;;;;;65.37;32.60;;;8.40;99.90;;;;;;5041202;28;20482;-52
2022/03/17 08:02:43;;;;;;;64.47;32.93;;;8.40;99.90;;;;;;5057167;28;20500;-57
2022/03/17 08:05:12;;;;;;;73.23;33.60;;;8.50;99.90;;;;;;5056645;28;20491;-50
2022/03/17 08:07:38;;;;;;;61.23;33.63;;;8.50;99.90;;;;;;5056212;28;20462;-55
2022/03/17 08:10:06;;;;;;;70.13;35.13;;;8.60;99.90;;;;;;5056562;28;20474;-51
2022/03/17 08:12:33;;;;;;;65.57;32.77;;;8.60;99.90;;;;;;5056074;28;20443;-53
2022/03/17 08:15:01;;;;;;;66.30;35.43;;;8.70;99.90;;;;;;5057049;28;20515;-53
2022/03/17 08:17:28;;;;;;;65.47;35.33;;;8.70;99.90;;;;;;5058055;28;20455;-57
2022/03/17 08:19:55;;;;;;;59.50;36.03;;;8.80;99.90;;;;;;5059463;28;20443;-54
2022/03/17 08:22:23;;;;;;;60.67;33.40;;;8.80;99.90;;;;;;5057867;28;20533;-56
2022/03/17 08:24:50;;;;;;;61.20;35.43;;;8.90;99.90;;;;;;5055158;28;20446;-56
2022/03/17 08:27:17;;;;;;;61.47;32.17;;;9.00;99.90;;;;;;5036861;28;20567;-55
2022/03/17 08:29:44;;;;;;;63.43;35.83;;;9.00;99.90;;;;;;5036568;28;20448;-57
2022/03/17 08:32:13;;;;;;;63.83;34.03;;;9.00;99.90;;;;;;5037040;28;20529;-55
2022/03/17 08:34:39;;;;;;;64.63;35.47;;;9.10;99.90;;;;;;5037660;28;20563;-54
2022/03/17 08:37:06;;;;;;;69.57;36.87;;;9.10;99.90;;;;;;5038742;28;20508;-58
2022/03/17 08:39:34;;;;;;;63.00;34.90;;;9.20;99.90;;;;;;5057393;28;20969;-54
2022/03/17 08:42:01;;;;;;;66.23;35.47;;;9.20;99.90;;;;;;5055874;28;20467;-59
2022/03/17 08:44:28;;;;;;;69.73;36.70;;;9.20;99.90;;;;;;5051178;28;20451;-55
2022/03/17 08:49:39;;;;;;;68.97;37.30;;;9.30;99.90;;;;;;5057559;28;20865;-60
2022/03/17 08:52:07;;;;;;;62.43;34.67;;;9.30;99.90;;;;;;5057944;28;20469;-51
2022/03/17 08:54:36;;;;;;;61.37;34.70;;;9.30;99.90;;;;;;5058108;28;20450;-64
2022/03/17 08:57:04;;;;;;;64.77;35.20;;;9.40;99.90;;;;;;5058459;28;20449;-56
2022/03/17 08:59:34;;;;;;;69.17;34.40;;;9.40;99.90;;;;;;5056857;28;20502;-59
2022/03/17 09:02:03;;;;;;;67.80;34.97;;;9.30;99.90;;;;;;5056235;28;20485;-57
2022/03/17 09:04:32;;;;;;;73.80;36.70;;;9.30;99.90;;;;;;5054798;28;20444;-59
2022/03/17 09:07:02;;;;;;;65.13;34.20;;;9.30;99.90;;;;;;5053686;28;20494;-59
2022/03/17 09:09:31;;;;;;;68.10;35.00;;;9.40;99.90;;;;;;5056847;28;20435;-55
2022/03/17 09:12:00;;;;;;;65.80;33.80;;;9.40;99.90;;;;;;5055922;28;20558;-55
2022/03/17 09:14:28;;;;;;;60.67;32.23;;;9.40;99.90;;;;;;5055234;28;20916;-54
2022/03/17 09:16:56;;;;;;;60.63;34.40;;;9.40;99.90;;;;;;5055305;28;20459;-56
2022/03/17 09:19:23;;;;;;;59.10;34.10;;;9.50;99.90;;;;;;5055162;28;20911;-58
2022/03/17 09:21:51;;;;;;;59.90;33.50;;;9.60;99.90;;;;;;5055412;28;20443;-55
2022/03/17 09:24:19;;;;;;;53.67;32.50;;;9.70;99.90;;;;;;5055454;28;20470;-56
2022/03/17 09:26:46;;;;;;;62.23;35.17;;;9.80;99.90;;;;;;5055295;28;20483;-57
2022/03/17 09:29:16;;;;;;;57.07;34.60;;;9.80;99.90;;;;;;5049428;28;20458;-54
2022/03/17 09:31:43;;;;;;;56.87;32.00;;;9.90;99.90;;;;;;5056332;28;20449;-57
2022/03/17 09:34:12;;;;;;;66.97;33.50;;;9.90;99.90;;;;;;5056244;28;20454;-59
2022/03/17 09:36:40;;;;;;;59.60;33.70;;;10.00;99.90;;;;;;5056673;28;20542;-60
2022/03/17 09:41:54;;;;;;;57.23;32.07;;;10.20;99.90;;;;;;5054974;28;20926;-56
2022/03/17 09:44:22;;;;;;;59.90;31.13;;;10.30;99.90;;;;;;5055243;28;20444;-57
2022/03/17 09:46:49;;;;;;;64.13;36.30;;;10.40;99.90;;;;;;5051040;28;20520;-61
2022/03/17 09:49:17;;;;;;;59.67;33.37;;;10.40;99.90;;;;;;5052046;28;20475;-55
2022/03/17 09:51:46;;;;;;;65.67;32.50;;;10.40;99.90;;;;;;5055648;28;20435;-59
2022/03/17 09:54:13;;;;;;;52.50;30.83;;;10.40;99.90;;;;;;5054700;28;20474;-55
2022/03/17 09:56:40;;;;;;;55.07;31.03;;;10.40;99.90;;;;;;5054930;28;20426;-58
2022/03/17 09:59:07;;;;;;;60.53;34.10;;;10.40;99.90;;;;;;5042624;28;20495;-58
2022/03/17 10:01:39;;;;;;;56.10;32.60;;;10.40;99.90;;;;;;5050441;28;20508;-50
2022/03/17 10:04:07;;;;;;;51.50;29.53;;;10.40;99.90;;;;;;5055157;28;20424;-52
2022/03/17 10:06:36;;;;;;;60.97;33.23;;;10.50;99.90;;;;;;5064991;28;20467;-50
2022/03/17 10:09:04;;;;;;;60.87;32.83;;;10.50;99.90;;;;;;5075829;28;20420;-55
2022/03/17 10:11:37;;;;;;;58.87;31.70;;;10.60;99.90;;;;;;5075617;28;20443;-55
2022/03/17 10:14:06;;;;;;;57.10;32.53;;;10.60;99.90;;;;;;5075264;28;20460;-61
2022/03/17 10:16:40;;;;;;;56.80;31.67;;;10.60;99.90;;;;;;5075731;28;20455;-49
2022/03/17 10:19:09;;;;;;;54.63;33.53;;;10.60;99.90;;;;;;5075103;28;20498;-59
2022/03/17 10:21:38;;;;;;;54.20;32.77;;;10.60;99.90;;;;;;5079371;28;20477;-59
2022/03/17 10:24:07;;;;;;;60.03;32.63;;;10.60;99.90;;;;;;5079322;28;20538;-54
2022/03/17 10:26:39;;;;;;;51.20;31.63;;;10.70;99.90;;;;;;5078995;28;20570;-51
2022/03/17 10:29:09;;;;;;;60.40;32.00;;;10.70;99.90;;;;;;5079115;28;20440;-54
2022/03/17 10:31:52;;;;;;;62.50;33.40;;;10.70;99.90;;;;;;5078795;28;20447;-58
2022/03/17 10:34:20;;;;;;;56.47;32.67;;;10.70;99.90;;;;;;5079576;28;20485;-56
2022/03/17 10:36:50;;;;;;;54.13;29.97;;;10.80;99.90;;;;;;5078736;28;20423;-60
2022/03/17 10:39:19;;;;;;;55.10;30.60;;;10.80;99.90;;;;;;5078443;28;20432;-62
2022/03/17 10:41:50;;;;;;;54.60;33.60;;;10.90;99.90;;;;;;5078904;28;20448;-56
2022/03/17 10:44:20;;;;;;;61.07;36.37;;;10.90;99.90;;;;;;5074192;28;20546;-55
2022/03/17 10:47:01;;;;;;;57.20;32.80;;;10.90;99.90;;;;;;5078728;28;20570;-57
2022/03/17 10:49:29;;;;;;;46.83;30.53;;;11.00;99.90;;;;;;5075952;28;20875;-60
2022/03/17 10:51:57;;;;;;;57.00;32.20;;;11.00;99.90;;;;;;5075857;28;20433;-61
2022/03/17 10:54:24;;;;;;;52.93;33.00;;;11.00;99.90;;;;;;5078930;28;20443;-66
2022/03/17 10:57:02;;;;;;;57.17;33.00;;;11.10;99.90;;;;;;5067752;28;20459;-58
2022/03/17 10:59:42;;;;;;;55.13;32.07;;;11.30;99.90;;;;;;5068019;28;20445;-58
2022/03/17 11:02:12;;;;;;;48.60;29.30;;;11.20;99.90;;;;;;5058755;28;20451;-57
2022/03/17 11:04:44;;;;;;;57.70;30.80;;;11.30;99.90;;;;;;5058615;28;20432;-55
2022/03/17 11:07:14;;;;;;;51.50;30.33;;;11.50;99.90;;;;;;5060792;28;20478;-54
2022/03/17 11:09:44;;;;;;;45.80;28.93;;;11.60;99.90;;;;;;5058742;28;20420;-54
2022/03/17 11:12:12;;;;;;;54.37;30.93;;;11.70;99.90;;;;;;5058299;28;20455;-54
2022/03/17 11:14:43;;;;;;;53.90;29.60;;;11.80;99.90;;;;;;5058523;28;20483;-56
2022/03/17 11:17:14;;;;;;;60.33;32.37;;;11.80;99.90;;;;;;5059090;28;20432;-51
2022/03/17 11:19:43;;;;;;;55.80;30.73;;;11.90;99.90;;;;;;5058297;28;20436;-55
2022/03/17 11:22:15;;;;;;;51.53;31.60;;;11.90;99.90;;;;;;5058219;28;20444;-63
2022/03/17 11:24:43;;;;;;;50.17;29.63;;;11.90;99.90;;;;;;5058419;28;20654;-55
2022/03/17 11:27:11;;;;;;;46.30;29.13;;;12.00;99.90;;;;;;5058043;28;20490;-55
2022/03/17 11:29:44;;;;;;;51.20;29.13;;;12.00;99.90;;;;;;5057953;28;20928;-59
2022/03/17 11:32:28;;;;;;;45.97;30.20;;;12.00;99.90;;;;;;5057249;28;20451;-64
2022/03/17 11:35:10;;;;;;;52.23;30.80;;;12.00;99.90;;;;;;5058016;28;20408;-57
2022/03/17 11:37:37;;;;;;;58.53;29.30;;;12.00;99.90;;;;;;5058339;28;20405;-52
2022/03/17 11:40:09;;;;;;;50.97;28.40;;;12.10;99.90;;;;;;5058128;28;20495;-59
2022/03/17 11:42:40;;;;;;;51.43;28.43;;;12.10;99.90;;;;;;5059201;28;20423;-54
2022/03/17 11:45:43;;;;;;;54.60;30.80;;;12.20;99.90;;;;;;5060747;28;20506;-57
2022/03/17 11:48:15;;;;;;;57.53;32.87;;;12.40;99.90;;;;;;5077032;28;20465;-54
2022/03/17 11:50:48;;;;;;;51.83;30.27;;;12.40;99.90;;;;;;5078083;28;20475;-55
2022/03/17 11:53:42;;;;;;;51.87;30.40;;;12.40;99.90;;;;;;5078293;28;20435;-54
2022/03/17 11:56:11;;;;;;;42.63;28.60;;;12.40;99.90;;;;;;5075810;28;20474;-51
2022/03/17 11:58:42;;;;;;;42.87;24.97;;;12.50;99.90;;;;;;5077376;28;20478;-55
2022/03/17 12:01:11;;;;;;;49.77;29.93;;;12.50;99.90;;;;;;5077575;28;20435;-55
2022/03/17 12:03:45;;;;;;;47.57;28.20;;;12.60;99.90;;;;;;5077909;28;20949;-50
2022/03/17 12:06:15;;;;;;;51.53;28.87;;;12.70;99.90;;;;;;5077544;28;20487;-54
2022/03/17 12:08:43;;;;;;;41.17;25.00;;;12.80;99.90;;;;;;5077273;28;20567;-65
2022/03/17 12:11:13;;;;;;;40.47;24.63;;;12.90;99.90;;;;;;5077556;28;20435;-55
2022/03/17 12:13:40;;;;;;;43.97;27.83;;;12.90;99.90;;;;;;5077962;28;20541;-57
2022/03/17 12:16:08;;;;;;;44.80;26.87;;;12.90;99.90;;;;;;5077183;28;20481;-55
2022/03/17 12:19:01;;;;;;;41.47;25.77;;;13.00;99.90;;;;;;5077399;28;20436;-54
2022/03/17 12:22:11;;;;;;;34.97;25.00;;;13.00;99.90;;;;;;5070149;28;20447;-56
2022/03/17 12:24:40;;;;;;;49.93;25.57;;;13.00;99.90;;;;;;5062219;28;20439;-55
2022/03/17 12:27:11;;;;;;;43.63;26.10;;;13.00;99.90;;;;;;5077625;28;20495;-54
2022/03/17 12:29:39;;;;;;;38.07;23.47;;;13.00;99.90;;;;;;5077489;28;20423;-50
2022/03/17 12:32:07;;;;;;;42.97;25.90;;;13.10;99.90;;;;;;5077329;28;20447;-54
2022/03/17 12:34:37;;;;;;;51.70;27.27;;;13.10;99.90;;;;;;5077105;28;20573;-49
2022/03/17 12:37:05;;;;;;;47.47;25.60;;;13.00;99.90;;;;;;5077416;28;20430;-54
2022/03/17 12:39:33;;;;;;;46.20;24.83;;;13.10;99.90;;;;;;5076457;28;20415;-54
2022/03/17 12:42:02;;;;;;;40.90;25.30;;;13.10;99.90;;;;;;5076578;28;20489;-58
2022/03/17 12:44:29;;;;;;;46.33;23.70;;;13.10;99.90;;;;;;5075609;28;20470;-57
2022/03/17 12:46:56;;;;;;;41.30;23.40;;;13.10;99.90;;;;;;5076460;28;20506;-61
2022/03/17 12:49:24;;;;;;;45.00;26.57;;;13.20;99.90;;;;;;5076790;28;20464;-56
2022/03/17 12:51:52;;;;;;;39.63;25.50;;;13.20;99.90;;;;;;5076290;28;20467;-60
2022/03/17 12:54:19;;;;;;;43.10;25.10;;;13.20;99.90;;;;;;5076200;28;20431;-58